Time;durP1;ratioP1;P1;durP2;ratioP2;P2;SDS_P1;SDS_P2;PMS_P1;PMS_P2;Temp;Humidity;BMP_temperature;BMP_pressure;BME280_temperature;BME280_humidity;BME280_pressure;Samples;Min_cycle;Max_cycle;Signal;HPM_P1;HPM_P2
2022/11/10 00:00:00;;;;;;;;;;;12.80;90.20;;;;;;5113189;27;19955;-86
2022/11/10 00:02:26;;;;;;;;;;;12.70;90.30;;;;;;5113517;28;20045;-86
2022/11/10 00:04:51;;;;;;;;;;;12.70;90.40;;;;;;5113963;28;20346;-86
2022/11/10 00:07:17;;;;;;;;;;;12.70;90.60;;;;;;5113242;28;19941;-86
2022/11/10 00:09:42;;;;;;;;;;;12.70;90.80;;;;;;5111240;27;19987;-86
2022/11/10 00:12:08;;;;;;;;;;;12.60;90.90;;;;;;5113871;28;19944;-86
2022/11/10 00:17:17;;;;;;;;;;;12.70;91.00;;;;;;5113018;28;20429;-85
2022/11/10 00:19:43;;;;;;;;;;;12.60;91.30;;;;;;5113770;28;20038;-86
2022/11/10 00:22:08;;;;;;;;;;;12.60;91.40;;;;;;5113735;28;20028;-85
2022/11/10 00:24:34;;;;;;;;;;;12.60;91.60;;;;;;5112334;28;20030;-86
2022/11/10 00:26:59;;;;;;;;;;;12.60;91.60;;;;;;5112911;28;19951;-86
2022/11/10 00:29:25;;;;;;;;;;;12.60;91.60;;;;;;5075216;28;19949;-86
2022/11/10 00:31:50;;;;;;;;;;;12.70;91.50;;;;;;5093271;28;20444;-86
2022/11/10 00:34:16;;;;;;;;;;;12.70;91.40;;;;;;5095570;22;19984;-86
2022/11/10 00:36:42;;;;;;;;;;;12.70;91.40;;;;;;5072989;28;19939;-86
2022/11/10 00:39:08;;;;;;;;;;;12.70;91.40;;;;;;5072292;28;20041;-86
2022/11/10 00:41:33;;;;;;;;;;;12.70;91.40;;;;;;5072982;28;19993;-86
2022/11/10 00:43:59;;;;;;;;;;;12.70;91.40;;;;;;5072819;28;19987;-86
2022/11/10 00:46:25;;;;;;;;;;;12.70;91.50;;;;;;5072950;28;20312;-86
2022/11/10 00:48:50;;;;;;;;;;;12.70;91.40;;;;;;5072127;28;19954;-86
2022/11/10 00:51:26;;;;;;;;;;;12.70;91.50;;;;;;5072816;28;19978;-85
2022/11/10 00:53:52;;;;;;;;;;;12.70;91.50;;;;;;5071540;28;20392;-86
2022/11/10 00:56:18;;;;;;;;;;;12.70;91.50;;;;;;5073950;28;19966;-86
2022/11/10 00:58:43;;;;;;;;;;;12.70;91.60;;;;;;5076110;28;19942;-86
2022/11/10 01:01:09;;;;;;;;;;;12.60;91.70;;;;;;5076820;28;19944;-86
2022/11/10 01:03:35;;;;;;;;;;;12.70;91.80;;;;;;5076762;28;19940;-86
2022/11/10 01:06:08;;;;;;;;;;;12.70;91.80;;;;;;5076682;28;19945;-86
2022/11/10 01:08:33;;;;;;;;;;;12.70;91.80;;;;;;5074906;28;19947;-86
2022/11/10 01:11:03;;;;;;;;;;;12.70;91.90;;;;;;5076620;28;20428;-86
2022/11/10 01:13:29;;;;;;;;;;;12.70;91.90;;;;;;5076497;28;20012;-85
2022/11/10 01:15:54;;;;;;;;;;;12.60;91.90;;;;;;5076469;28;20422;-86
2022/11/10 01:18:20;;;;;;;;;;;12.60;92.00;;;;;;5074766;28;19960;-86
2022/11/10 01:20:50;;;;;;;;;;;12.60;92.10;;;;;;5076454;28;19960;-86
2022/11/10 01:23:15;;;;;;;;;;;12.60;92.20;;;;;;5074630;28;20044;-86
2022/11/10 01:25:41;;;;;;;;;;;12.60;92.20;;;;;;5076247;28;20421;-86
2022/11/10 01:28:06;;;;;;;;;;;12.60;92.30;;;;;;5075531;28;19946;-86
2022/11/10 01:30:32;;;;;;;;;;;12.60;92.40;;;;;;5076251;28;20189;-86
2022/11/10 01:32:57;;;;;;;;;;;12.60;92.50;;;;;;5076180;28;20089;-86
2022/11/10 01:35:23;;;;;;;;;;;12.60;92.50;;;;;;5075921;28;20016;-86
2022/11/10 01:37:50;;;;;;;;;;;12.60;92.50;;;;;;5074836;28;19954;-86
2022/11/10 01:40:16;;;;;;;;;;;12.60;92.60;;;;;;5076384;28;19945;-86
2022/11/10 01:42:44;;;;;;;;;;;12.60;92.70;;;;;;5076014;28;19940;-85
2022/11/10 01:45:22;;;;;;;;;;;12.60;92.70;;;;;;5075931;28;20026;-86
2022/11/10 01:47:56;;;;;;;;;;;12.60;92.70;;;;;;5057147;28;20450;-86
2022/11/10 01:50:24;;;;;;;;;;;12.60;92.80;;;;;;5075858;28;20388;-86
2022/11/10 01:52:51;;;;;;;;;;;12.60;92.80;;;;;;5074403;28;19975;-86
2022/11/10 01:55:16;;;;;;;;;;;12.50;92.90;;;;;;5075593;28;19965;-86
2022/11/10 01:57:42;;;;;;;;;;;12.50;93.00;;;;;;5070815;28;19947;-86
2022/11/10 02:00:08;;;;;;;;;;;12.50;93.10;;;;;;5055724;28;19938;-86
2022/11/10 02:02:40;;;;;;;;;;;12.50;93.20;;;;;;5055595;28;19943;-86
2022/11/10 02:05:06;;;;;;;;;;;12.50;93.20;;;;;;5055566;28;19985;-86
2022/11/10 02:07:32;;;;;;;;;;;12.50;93.30;;;;;;5056282;28;19952;-86
2022/11/10 02:10:00;;;;;;;;;;;12.50;93.40;;;;;;5075373;28;20037;-86
2022/11/10 02:12:38;;;;;;;;;;;12.50;93.40;;;;;;5075520;28;20032;-86
2022/11/10 02:15:04;;;;;;;;;;;12.40;93.50;;;;;;5075588;28;19964;-86
2022/11/10 02:17:30;;;;;;;;;;;12.40;93.70;;;;;;5074660;28;20300;-86
2022/11/10 02:20:03;;;;;;;;;;;12.50;93.80;;;;;;5075380;28;19977;-86
2022/11/10 02:22:29;;;;;;;;;;;12.50;93.80;;;;;;5073009;28;19984;-86
2022/11/10 02:24:55;;;;;;;;;;;12.40;93.90;;;;;;5075209;28;19972;-87
2022/11/10 02:27:20;;;;;;;;;;;12.40;94.00;;;;;;5074538;28;20389;-86
2022/11/10 02:29:46;;;;;;;;;;;12.40;94.10;;;;;;5075170;28;19941;-86
2022/11/10 02:32:11;;;;;;;;;;;12.40;94.20;;;;;;5075102;28;19947;-86
2022/11/10 02:34:37;;;;;;;;;;;12.40;94.30;;;;;;5074774;28;20028;-86
2022/11/10 02:37:02;;;;;;;;;;;12.40;94.40;;;;;;5074643;28;19943;-86
2022/11/10 02:39:28;;;;;;;;;;;12.50;94.40;;;;;;5071478;28;20037;-86
2022/11/10 02:41:54;;;;;;;;;;;12.50;94.40;;;;;;5074906;28;20292;-86
2022/11/10 02:44:19;;;;;;;;;;;12.50;94.40;;;;;;5074871;28;20414;-86
2022/11/10 02:46:45;;;;;;;;;;;12.50;94.30;;;;;;5074747;28;19942;-86
2022/11/10 02:49:10;;;;;;;;;;;12.40;94.40;;;;;;5073731;28;20034;-86
2022/11/10 02:51:36;;;;;;;;;;;12.40;94.40;;;;;;5074598;28;19951;-86
2022/11/10 02:54:02;;;;;;;;;;;12.50;94.40;;;;;;5073745;28;20464;-86
2022/11/10 02:56:27;;;;;;;;;;;12.50;94.40;;;;;;5073357;28;19951;-86
2022/11/10 02:58:53;;;;;;;;;;;12.60;94.40;;;;;;5074604;28;19944;-86
2022/11/10 03:01:19;;;;;;;;;;;12.60;94.30;;;;;;5074524;28;20364;-86
2022/11/10 03:03:44;;;;;;;;;;;12.60;94.20;;;;;;5074469;28;19940;-85
2022/11/10 03:06:10;;;;;;;;;;;12.60;94.30;;;;;;5073113;28;19950;-86
2022/11/10 03:08:36;;;;;;;;;;;12.60;94.20;;;;;;5071750;28;20313;-86
2022/11/10 03:11:02;;;;;;;;;;;12.60;94.20;;;;;;5074282;28;19946;-86
2022/11/10 03:13:29;;;;;;;;;;;12.60;94.20;;;;;;5074294;28;19937;-86
2022/11/10 03:15:55;;;;;;;;;;;12.60;94.20;;;;;;5073475;28;19963;-86
2022/11/10 03:18:20;;;;;;;;;;;12.60;94.10;;;;;;5073680;28;20035;-86
2022/11/10 03:20:47;;;;;;;;;;;12.60;94.10;;;;;;5074078;28;19938;-86
2022/11/10 03:23:13;;;;;;;;;;;12.60;94.20;;;;;;5072400;28;19987;-86
2022/11/10 03:25:38;;;;;;;;;;;12.60;94.20;;;;;;5074057;28;19939;-86
2022/11/10 03:28:04;;;;;;;;;;;12.60;94.20;;;;;;5073998;28;19942;-86
2022/11/10 03:30:29;;;;;;;;;;;12.60;94.20;;;;;;5074188;28;20006;-86
2022/11/10 03:32:55;;;;;;;;;;;12.60;94.30;;;;;;5073480;28;19946;-86
2022/11/10 03:35:21;;;;;;;;;;;12.60;94.30;;;;;;5073687;28;19974;-86
2022/11/10 03:37:46;;;;;;;;;;;12.60;94.30;;;;;;5073839;28;20037;-86
2022/11/10 03:40:12;;;;;;;;;;;12.60;94.30;;;;;;5072874;28;20038;-86
2022/11/10 03:42:44;;;;;;;;;;;12.60;94.40;;;;;;5073739;28;19938;-86
2022/11/10 03:45:10;;;;;;;;;;;12.60;94.40;;;;;;5073265;28;19954;-86
2022/11/10 03:47:36;;;;;;;;;;;12.60;94.50;;;;;;5073912;28;20035;-86
2022/11/10 03:50:02;;;;;;;;;;;12.60;94.50;;;;;;5073550;28;19996;-86
2022/11/10 03:52:27;;;;;;;;;;;12.60;94.50;;;;;;5073335;28;20025;-86
2022/11/10 03:54:53;;;;;;;;;;;12.60;94.60;;;;;;5072126;28;19959;-86
2022/11/10 03:57:18;;;;;;;;;;;12.60;94.70;;;;;;5073418;28;19946;-86
2022/11/10 03:59:44;;;;;;;;;;;12.60;94.70;;;;;;5073421;28;19981;-86
2022/11/10 04:02:09;;;;;;;;;;;12.70;94.70;;;;;;5073425;28;19938;-86
2022/11/10 04:10:03;;;;;;;;;;;12.70;94.90;;;;;;5070818;28;19997;-86
2022/11/10 04:20:41;;;;;;;;;;;12.80;94.60;;;;;;5072799;28;19960;-86
2022/11/10 04:23:25;;;;;;;;;;;12.80;94.60;;;;;;5073433;28;19941;-85
2022/11/10 04:28:40;;;;;;;;;;;12.70;94.40;;;;;;5073722;28;19944;-86
2022/11/10 04:31:06;;;;;;;;;;;12.70;94.50;;;;;;5072204;28;20345;-86
2022/11/10 04:33:31;;;;;;;;;;;12.70;94.60;;;;;;5055088;28;19965;-86
2022/11/10 04:35:57;;;;;;;;;;;12.60;94.70;;;;;;5072084;28;20440;-86
2022/11/10 04:38:22;;;;;;;;;;;12.70;94.70;;;;;;5072996;28;20074;-86
2022/11/10 04:40:48;;;;;;;;;;;12.70;94.70;;;;;;5072242;28;19977;-86
2022/11/10 04:43:13;;;;;;;;;;;12.70;94.70;;;;;;5072981;28;19948;-86
2022/11/10 04:45:39;;;;;;;;;;;12.70;94.60;;;;;;5072219;28;19937;-86
2022/11/10 04:48:05;;;;;;;;;;;12.80;94.60;;;;;;5054899;28;19947;-86
2022/11/10 04:50:30;;;;;;;;;;;12.70;94.50;;;;;;5072914;28;19944;-86
2022/11/10 04:52:56;;;;;;;;;;;12.70;94.50;;;;;;5071966;28;19964;-86
2022/11/10 04:55:21;;;;;;;;;;;12.70;94.50;;;;;;5072024;28;19966;-86
2022/11/10 04:57:47;;;;;;;;;;;12.60;94.50;;;;;;5072854;28;19961;-86
2022/11/10 05:00:12;;;;;;;;;;;12.60;94.60;;;;;;5054857;28;19942;-86
2022/11/10 05:02:38;;;;;;;;;;;12.60;94.50;;;;;;5072804;28;20382;-86
2022/11/10 05:05:04;;;;;;;;;;;12.70;94.60;;;;;;5072004;28;20001;-86
2022/11/10 05:07:29;;;;;;;;;;;12.60;94.60;;;;;;5072740;28;19940;-86
2022/11/10 05:09:55;;;;;;;;;;;12.60;94.60;;;;;;5071848;28;19994;-86
2022/11/10 05:12:20;;;;;;;;;;;12.60;94.70;;;;;;5072665;28;19942;-86
2022/11/10 05:14:46;;;;;;;;;;;12.60;94.70;;;;;;5071848;28;20008;-86
2022/11/10 05:17:11;;;;;;;;;;;12.60;94.70;;;;;;5072649;28;19990;-86
2022/11/10 05:19:37;;;;;;;;;;;12.60;94.80;;;;;;5073012;28;19950;-86
2022/11/10 05:22:02;;;;;;;;;;;12.50;94.90;;;;;;5072600;28;19941;-86
2022/11/10 05:24:28;;;;;;;;;;;12.50;95.10;;;;;;5070942;28;19946;-86
2022/11/10 05:26:53;;;;;;;;;;;12.50;95.20;;;;;;5072552;28;19943;-86
2022/11/10 05:29:19;;;;;;;;;;;12.40;95.30;;;;;;5072530;28;20023;-86
2022/11/10 05:31:44;;;;;;;;;;;12.40;95.40;;;;;;5072489;28;20040;-86
2022/11/10 05:34:10;;;;;;;;;;;12.40;95.50;;;;;;5072241;28;20061;-86
2022/11/10 05:36:35;;;;;;;;;;;12.40;95.50;;;;;;5071806;28;19950;-86
2022/11/10 05:39:01;;;;;;;;;;;12.40;95.60;;;;;;5072737;28;19944;-86
2022/11/10 05:41:26;;;;;;;;;;;12.40;95.70;;;;;;5071323;28;19942;-86
2022/11/10 05:43:52;;;;;;;;;;;12.40;95.70;;;;;;5075775;28;20062;-86
2022/11/10 05:46:18;;;;;;;;;;;12.40;95.80;;;;;;5075156;28;19954;-87
2022/11/10 05:48:45;;;;;;;;;;;12.40;95.80;;;;;;5074215;28;19945;-86
2022/11/10 05:51:10;;;;;;;;;;;12.40;95.80;;;;;;5075790;28;20046;-86
2022/11/10 05:53:36;;;;;;;;;;;12.40;95.80;;;;;;5075811;28;19980;-86
2022/11/10 05:56:02;;;;;;;;;;;12.40;95.80;;;;;;5072610;28;20403;-86
2022/11/10 05:58:28;;;;;;;;;;;12.40;95.80;;;;;;5075780;28;19945;-86
2022/11/10 06:00:54;;;;;;;;;;;12.40;95.80;;;;;;5075651;28;19937;-86
2022/11/10 06:03:19;;;;;;;;;;;12.40;95.80;;;;;;5069945;28;19949;-86
2022/11/10 06:05:45;;;;;;;;;;;12.40;95.80;;;;;;5063812;28;19939;-86
2022/11/10 06:08:11;;;;;;;;;;;12.50;95.70;;;;;;5056676;28;19948;-86
2022/11/10 06:10:37;;;;;;;;;;;12.50;95.70;;;;;;5073024;28;19955;-86
2022/11/10 06:13:03;;;;;;;;;;;12.50;95.60;;;;;;5075251;28;20098;-86
2022/11/10 06:15:29;;;;;;;;;;;12.60;95.60;;;;;;5074576;28;19962;-86
2022/11/10 06:17:55;;;;;;;;;;;12.60;95.50;;;;;;5073187;28;20072;-86
2022/11/10 06:20:21;;;;;;;;;;;12.60;95.40;;;;;;5055073;28;19942;-86
2022/11/10 06:22:59;;;;;;;;;;;12.70;95.30;;;;;;5060421;28;19945;-86
2022/11/10 06:25:25;;;;;;;;;;;12.70;95.20;;;;;;5081501;28;20034;-86
2022/11/10 06:27:51;;;;;;;;;;;12.70;95.10;;;;;;5070937;28;20009;-86
2022/11/10 06:30:16;;;;;;;;;;;12.80;95.00;;;;;;5068314;28;19976;-86
2022/11/10 06:32:43;;;;;;;;;;;12.80;95.00;;;;;;5065537;28;20115;-86
2022/11/10 06:35:09;;;;;;;;;;;12.80;95.00;;;;;;5069780;28;19997;-86
2022/11/10 06:37:37;;;;;;;;;;;12.80;95.00;;;;;;5072462;28;20487;-86
2022/11/10 06:40:04;;;;;;;;;;;12.80;94.90;;;;;;5063283;28;19955;-86
2022/11/10 06:42:29;;;;;;;;;;;12.80;95.00;;;;;;5067825;28;19950;-86
2022/11/10 06:44:55;;;;;;;;;;;12.80;95.00;;;;;;5063945;28;19944;-86
2022/11/10 06:47:20;;;;;;;;;;;12.80;95.00;;;;;;5063014;28;20000;-87
2022/11/10 06:49:46;;;;;;;;;;;12.80;94.90;;;;;;5071562;28;20459;-86
2022/11/10 06:52:11;;;;;;;;;;;12.90;94.80;;;;;;5073559;28;19959;-86
2022/11/10 06:54:37;;;;;;;;;;;12.70;95.10;;;;;;5052417;28;19965;-86
2022/11/10 06:57:02;;;;;;;;;;;12.60;95.30;;;;;;5073784;28;19948;-87
2022/11/10 06:59:28;;;;;;;;;;;12.70;95.30;;;;;;5070622;28;20389;-86
2022/11/10 07:01:53;;;;;;;;;;;12.80;95.40;;;;;;5065744;28;19948;-86
2022/11/10 07:04:19;;;;;;;;;;;12.80;95.30;;;;;;5063341;28;19944;-86
2022/11/10 07:06:46;;;;;;;;;;;12.80;95.30;;;;;;5062308;28;19974;-87
2022/11/10 07:09:12;;;;;;;;;;;13.00;95.30;;;;;;5062016;28;19998;-87
2022/11/10 07:11:37;;;;;;;;;;;13.00;95.10;;;;;;5070743;28;19980;-87
2022/11/10 07:14:03;;;;;;;;;;;12.90;95.10;;;;;;5073021;28;20355;-86
2022/11/10 07:16:28;;;;;;;;;;;12.90;95.20;;;;;;5069357;28;20621;-86
2022/11/10 07:18:54;;;;;;;;;;;12.90;95.30;;;;;;5069324;28;19948;-87
2022/11/10 07:21:19;;;;;;;;;;;13.00;95.30;;;;;;5070863;28;19944;-87
2022/11/10 07:23:45;;;;;;;;;;;13.00;95.30;;;;;;5072669;28;20312;-86
2022/11/10 07:26:11;;;;;;;;;;;13.10;95.30;;;;;;5069614;28;19980;-87
2022/11/10 07:28:37;;;;;;;;;;;13.20;95.30;;;;;;5073411;28;20044;-86
2022/11/10 07:31:03;;;;;;;;;;;13.30;95.10;;;;;;5068978;28;19945;-86
2022/11/10 07:33:29;;;;;;;;;;;13.30;94.60;;;;;;5070426;28;19946;-87
2022/11/10 07:35:59;;;;;;;;;;;13.30;94.20;;;;;;5071766;28;20059;-87
2022/11/10 07:38:24;;;;;;;;;;;13.40;94.10;;;;;;5072212;28;20016;-87
2022/11/10 07:40:53;;;;;;;;;;;13.30;93.90;;;;;;5070078;28;19972;-87
2022/11/10 07:43:19;;;;;;;;;;;13.40;93.90;;;;;;5070675;28;20565;-86
2022/11/10 07:45:45;;;;;;;;;;;13.70;94.00;;;;;;5069770;28;19947;-87
2022/11/10 07:48:10;;;;;;;;;;;13.90;93.70;;;;;;5058183;28;19983;-87
2022/11/10 07:50:36;;;;;;;;;;;14.10;93.30;;;;;;5068800;28;19946;-86
2022/11/10 07:53:05;;;;;;;;;;;14.30;92.80;;;;;;5070980;28;20389;-87
2022/11/10 07:55:31;;;;;;;;;;;14.20;91.60;;;;;;5065428;28;20340;-87
2022/11/10 07:57:57;;;;;;;;;;;14.30;91.50;;;;;;5060459;28;19961;-87
2022/11/10 08:00:23;;;;;;;;;;;14.40;91.10;;;;;;5069767;28;20360;-86
2022/11/10 08:02:49;;;;;;;;;;;14.50;90.60;;;;;;5060986;28;20042;-86
2022/11/10 08:05:15;;;;;;;;;;;14.50;90.40;;;;;;5067429;28;19939;-86
2022/11/10 08:07:41;;;;;;;;;;;14.60;89.90;;;;;;5069125;28;20384;-86
2022/11/10 08:10:07;;;;;;;;;;;14.60;89.70;;;;;;5067191;28;19945;-87
2022/11/10 08:12:33;;;;;;;;;;;14.60;89.90;;;;;;5061588;28;20041;-87
2022/11/10 08:14:59;;;;;;;;;;;14.70;89.70;;;;;;5066193;28;20059;-86
2022/11/10 08:17:24;;;;;;;;;;;14.50;89.80;;;;;;5061575;28;19946;-86
2022/11/10 08:19:50;;;;;;;;;;;14.60;89.70;;;;;;5066460;28;19940;-86
2022/11/10 08:22:16;;;;;;;;;;;14.40;89.30;;;;;;5066525;28;19945;-86
2022/11/10 08:24:41;;;;;;;;;;;14.40;90.10;;;;;;5062839;28;19953;-87
2022/11/10 08:27:07;;;;;;;;;;;14.30;90.50;;;;;;5066860;28;19950;-86
2022/11/10 08:29:32;;;;;;;;;;;14.30;90.90;;;;;;5065692;28;19966;-87
2022/11/10 08:31:58;;;;;;;;;;;14.40;90.10;;;;;;5066318;28;20327;-87
2022/11/10 08:34:23;;;;;;;;;;;14.40;90.00;;;;;;5082850;22;19978;-87
2022/11/10 08:36:50;;;;;;;;;;;14.40;89.30;;;;;;5088971;28;19942;-86
2022/11/10 08:39:16;;;;;;;;;;;14.40;89.40;;;;;;5083006;28;20424;-87
2022/11/10 08:41:41;;;;;;;;;;;14.30;90.00;;;;;;5082106;28;19985;-87
2022/11/10 08:44:07;;;;;;;;;;;14.40;90.30;;;;;;5070693;28;19994;-87
2022/11/10 08:46:33;;;;;;;;;;;14.50;90.30;;;;;;5076335;28;20040;-87
2022/11/10 08:48:58;;;;;;;;;;;14.60;89.70;;;;;;5072791;28;19957;-87
2022/11/10 08:51:24;;;;;;;;;;;14.70;89.80;;;;;;5077112;28;20335;-86
2022/11/10 08:53:49;;;;;;;;;;;14.60;89.30;;;;;;5076851;28;19952;-86
2022/11/10 08:56:15;;;;;;;;;;;14.40;89.50;;;;;;5068129;28;19978;-86
2022/11/10 08:58:40;;;;;;;;;;;14.40;89.90;;;;;;5071906;28;20318;-86
2022/11/10 09:01:07;;;;;;;;;;;14.50;90.00;;;;;;5077137;28;20460;-86
2022/11/10 09:03:32;;;;;;;;;;;14.40;89.80;;;;;;5070530;28;19949;-86
2022/11/10 09:05:58;;;;;;;;;;;14.40;90.10;;;;;;5092855;28;20021;-86
2022/11/10 09:08:23;;;;;;;;;;;14.40;90.10;;;;;;5080482;28;19943;-87
2022/11/10 09:10:50;;;;;;;;;;;14.30;90.30;;;;;;5073665;28;19967;-86
2022/11/10 09:13:16;;;;;;;;;;;14.30;90.70;;;;;;5076059;28;19971;-86
2022/11/10 09:15:42;;;;;;;;;;;14.30;91.00;;;;;;5078349;28;19964;-86
2022/11/10 09:18:08;;;;;;;;;;;14.50;91.00;;;;;;5073710;28;19945;-86
2022/11/10 09:20:34;;;;;;;;;;;14.70;90.90;;;;;;5074713;28;19944;-86
2022/11/10 09:23:08;;;;;;;;;;;14.80;90.60;;;;;;5073489;28;19941;-86
2022/11/10 09:25:34;;;;;;;;;;;15.00;90.20;;;;;;5080634;28;19946;-86
2022/11/10 09:27:59;;;;;;;;;;;15.10;89.70;;;;;;5073561;28;20532;-86
2022/11/10 09:30:25;;;;;;;;;;;15.10;89.40;;;;;;5071750;28;20452;-86
2022/11/10 09:32:54;;;;;;;;;;;15.10;89.00;;;;;;5072299;28;19954;-86
2022/11/10 09:35:20;;;;;;;;;;;15.20;88.60;;;;;;5075183;28;20024;-87
2022/11/10 09:37:45;;;;;;;;;;;15.20;88.50;;;;;;5074720;28;20362;-86
2022/11/10 09:40:16;;;;;;;;;;;15.20;88.50;;;;;;5073801;28;20042;-87
2022/11/10 09:42:41;;;;;;;;;;;15.30;88.40;;;;;;5073714;28;19947;-86
2022/11/10 09:45:27;;;;;;;;;;;15.30;88.60;;;;;;5073810;28;19952;-86
2022/11/10 09:48:05;;;;;;;;;;;15.20;88.60;;;;;;5070617;28;19939;-87
2022/11/10 09:50:49;;;;;;;;;;;15.30;88.60;;;;;;5073533;28;19990;-87
2022/11/10 09:53:16;;;;;;;;;;;15.40;88.30;;;;;;5070399;28;19978;-86
2022/11/10 09:55:42;;;;;;;;;;;15.20;88.90;;;;;;5073310;28;19962;-86
2022/11/10 09:58:10;;;;;;;;;;;14.90;89.10;;;;;;5071407;28;20295;-87
2022/11/10 10:00:36;;;;;;;;;;;14.90;89.90;;;;;;5070829;28;20086;-87
2022/11/10 10:03:02;;;;;;;;;;;14.90;90.20;;;;;;5073178;28;19972;-87
2022/11/10 10:05:46;;;;;;;;;;;15.00;90.00;;;;;;5066777;28;20038;-86
2022/11/10 10:08:18;;;;;;;;;;;15.20;88.90;;;;;;5070163;28;20413;-87
2022/11/10 10:10:46;;;;;;;;;;;15.30;88.50;;;;;;5066435;28;19944;-86
2022/11/10 10:13:23;;;;;;;;;;;15.30;88.50;;;;;;5074723;28;19956;-86
2022/11/10 10:15:49;;;;;;;;;;;15.30;88.90;;;;;;5073181;28;20410;-87
2022/11/10 10:18:30;;;;;;;;;;;15.20;88.90;;;;;;5074936;28;19953;-87
2022/11/10 10:21:14;;;;;;;;;;;15.30;88.30;;;;;;5063200;28;19945;-86
2022/11/10 10:23:47;;;;;;;;;;;15.40;87.90;;;;;;5061741;28;19967;-86
2022/11/10 10:26:14;;;;;;;;;;;15.40;88.20;;;;;;5072809;28;19956;-86
2022/11/10 10:28:43;;;;;;;;;;;15.40;88.40;;;;;;5074505;28;19938;-86
2022/11/10 10:31:13;;;;;;;;;;;15.40;88.10;;;;;;5078670;28;19996;-87
2022/11/10 10:33:39;;;;;;;;;;;15.40;88.50;;;;;;5064911;28;19954;-86
2022/11/10 10:36:12;;;;;;;;;;;15.40;88.70;;;;;;5068049;28;19948;-86
2022/11/10 10:38:38;;;;;;;;;;;15.30;88.60;;;;;;5071186;28;19946;-87
2022/11/10 10:41:18;;;;;;;;;;;15.40;88.90;;;;;;5069825;28;19991;-87
2022/11/10 10:43:46;;;;;;;;;;;15.50;88.20;;;;;;5065376;28;19949;-87
2022/11/10 10:46:17;;;;;;;;;;;15.30;88.80;;;;;;5072997;28;19947;-87
2022/11/10 10:48:43;;;;;;;;;;;15.20;89.50;;;;;;5068242;28;19954;-87
2022/11/10 10:51:08;;;;;;;;;;;15.20;89.10;;;;;;5068785;28;19956;-86
2022/11/10 10:53:44;;;;;;;;;;;15.30;89.30;;;;;;5074831;28;19994;-87
2022/11/10 10:56:17;;;;;;;;;;;15.50;88.90;;;;;;5072376;28;20018;-87
2022/11/10 10:58:53;;;;;;;;;;;15.70;88.40;;;;;;5073372;28;19958;-87
2022/11/10 11:01:23;;;;;;;;;;;15.80;87.80;;;;;;5069117;28;19984;-86
2022/11/10 11:03:49;;;;;;;;;;;15.70;86.90;;;;;;5062971;28;20258;-86
2022/11/10 11:06:15;;;;;;;;;;;15.80;87.60;;;;;;5072074;28;19944;-87
2022/11/10 11:08:57;;;;;;;;;;;16.00;86.80;;;;;;5070711;28;19937;-86
2022/11/10 11:11:25;;;;;;;;;;;16.10;86.30;;;;;;5070678;28;20009;-87
2022/11/10 11:13:50;;;;;;;;;;;16.40;85.80;;;;;;5074212;28;20042;-87
2022/11/10 11:16:16;;;;;;;;;;;16.40;84.50;;;;;;5068261;28;20061;-86
2022/11/10 11:18:41;;;;;;;;;;;16.60;85.00;;;;;;5071959;28;19952;-86
2022/11/10 11:21:07;;;;;;;;;;;16.80;84.00;;;;;;5074060;28;19946;-86
2022/11/10 11:23:51;;;;;;;;;;;16.90;83.60;;;;;;5074100;28;19940;-86
2022/11/10 11:26:17;;;;;;;;;;;16.60;84.30;;;;;;5073059;28;19948;-86
2022/11/10 11:28:57;;;;;;;;;;;16.70;85.10;;;;;;5073937;28;19945;-87
2022/11/10 11:31:23;;;;;;;;;;;17.00;84.50;;;;;;5073942;28;19947;-86
2022/11/10 11:33:55;;;;;;;;;;;17.20;82.90;;;;;;5073135;28;19942;-86
2022/11/10 11:36:32;;;;;;;;;;;17.10;83.20;;;;;;5073489;28;19963;-86
2022/11/10 11:38:58;;;;;;;;;;;17.00;83.30;;;;;;5073758;28;19991;-86
2022/11/10 11:41:59;;;;;;;;;;;17.10;83.70;;;;;;5071734;28;20352;-86
2022/11/10 11:44:30;;;;;;;;;;;17.20;83.30;;;;;;5015716;28;19973;-86
2022/11/10 11:47:11;;;;;;;;;;;17.30;82.90;;;;;;5066106;28;19939;-87
2022/11/10 11:49:47;;;;;;;;;;;17.30;82.50;;;;;;5074558;28;20039;-86
2022/11/10 11:52:39;;;;;;;;;;;17.10;82.80;;;;;;5093620;28;20445;-86
2022/11/10 11:55:12;;;;;;;;;;;17.10;83.40;;;;;;5050101;28;19962;-86
2022/11/10 11:57:50;;;;;;;;;;;17.30;83.10;;;;;;5073467;28;19953;-87
2022/11/10 12:00:17;;;;;;;;;;;17.30;82.60;;;;;;5073395;28;20038;-86
2022/11/10 12:03:09;;;;;;;;;;;17.30;83.10;;;;;;5073364;28;19931;-86
2022/11/10 12:05:52;;;;;;;;;;;17.50;82.80;;;;;;5049055;28;20395;-86
2022/11/10 12:08:30;;;;;;;;;;;17.70;82.10;;;;;;5073614;28;20454;-87
2022/11/10 12:11:14;;;;;;;;;;;17.60;81.10;;;;;;5074798;28;19943;-86
2022/11/10 12:13:54;;;;;;;;;;;17.50;82.10;;;;;;5073144;28;19953;-87
2022/11/10 12:16:21;;;;;;;;;;;17.70;82.20;;;;;;5073182;28;19967;-86
2022/11/10 12:18:55;;;;;;;;;;;17.70;82.10;;;;;;5073105;28;19943;-87
2022/11/10 12:21:22;;;;;;;;;;;17.80;81.60;;;;;;5072049;28;20313;-86
2022/11/10 12:23:53;;;;;;;;;;;17.80;81.60;;;;;;5073089;28;19944;-86
2022/11/10 12:26:19;;;;;;;;;;;17.90;81.30;;;;;;5074142;28;20374;-87
2022/11/10 12:28:48;;;;;;;;;;;18.20;80.80;;;;;;5071252;28;20041;-86
2022/11/10 12:31:20;;;;;;;;;;;18.40;80.00;;;;;;5069129;28;19949;-86
2022/11/10 12:33:52;;;;;;;;;;;18.30;79.70;;;;;;5067825;28;19949;-86
2022/11/10 12:36:19;;;;;;;;;;;18.30;80.10;;;;;;5084605;28;19961;-87
2022/11/10 12:39:11;;;;;;;;;;;18.80;79.40;;;;;;5081699;28;20026;-87
2022/11/10 12:41:40;;;;;;;;;;;19.10;77.90;;;;;;5064326;28;19948;-87
2022/11/10 12:44:26;;;;;;;;;;;19.20;76.90;;;;;;5085748;28;19985;-87
2022/11/10 12:46:54;;;;;;;;;;;19.30;76.70;;;;;;5058843;28;20324;-87
2022/11/10 12:49:32;;;;;;;;;;;19.30;76.00;;;;;;5069456;28;19951;-86
2022/11/10 12:52:16;;;;;;;;;;;19.10;76.60;;;;;;5060359;28;19974;-87
2022/11/10 12:54:42;;;;;;;;;;;18.90;76.90;;;;;;5074051;28;20333;-86
2022/11/10 12:57:17;;;;;;;;;;;19.40;76.20;;;;;;5072729;28;19948;-87
2022/11/10 13:00:08;;;;;;;;;;;20.30;73.40;;;;;;5074321;28;19946;-87
2022/11/10 13:02:41;;;;;;;;;;;21.10;70.30;;;;;;5060170;28;19944;-87
2022/11/10 13:05:13;;;;;;;;;;;22.10;67.20;;;;;;5067665;28;20051;-86
2022/11/10 13:07:42;;;;;;;;;;;22.60;64.70;;;;;;5068142;28;19992;-87
2022/11/10 13:10:17;;;;;;;;;;;22.90;64.30;;;;;;5079520;28;19968;-87
2022/11/10 13:12:57;;;;;;;;;;;23.20;62.50;;;;;;5079880;28;19946;-86
2022/11/10 13:15:35;;;;;;;;;;;23.40;62.30;;;;;;5072132;28;20049;-87
2022/11/10 13:18:00;;;;;;;;;;;23.90;60.30;;;;;;5072188;28;20429;-87
2022/11/10 13:20:49;;;;;;;;;;;23.90;59.40;;;;;;5071285;28;19945;-87
2022/11/10 13:23:27;;;;;;;;;;;24.00;58.50;;;;;;5064195;28;19938;-87
2022/11/10 13:25:53;;;;;;;;;;;24.10;57.50;;;;;;5075821;28;20394;-86
2022/11/10 13:28:48;;;;;;;;;;;23.90;57.40;;;;;;5085316;28;19952;-86
2022/11/10 13:31:26;;;;;;;;;;;23.70;58.10;;;;;;5056224;28;19948;-86
2022/11/10 13:34:03;;;;;;;;;;;23.90;57.90;;;;;;5069609;28;19948;-86
2022/11/10 13:36:47;;;;;;;;;;;24.00;56.60;;;;;;5071135;28;19959;-86
2022/11/10 13:39:19;;;;;;;;;;;24.20;56.40;;;;;;5068841;28;19946;-86
2022/11/10 13:41:45;;;;;;;;;;;24.50;55.40;;;;;;5074054;28;19948;-86
2022/11/10 13:44:23;;;;;;;;;;;24.90;54.40;;;;;;5075793;28;20026;-87
2022/11/10 13:46:57;;;;;;;;;;;25.10;53.90;;;;;;5074823;28;20393;-87
2022/11/10 13:49:27;;;;;;;;;;;25.10;53.30;;;;;;5071733;28;20320;-87
2022/11/10 13:51:55;;;;;;;;;;;24.50;54.80;;;;;;5073370;28;20091;-86
2022/11/10 13:54:23;;;;;;;;;;;23.70;56.80;;;;;;5068757;28;19953;-87
2022/11/10 13:57:01;;;;;;;;;;;22.60;59.00;;;;;;5066400;28;19964;-87
2022/11/10 13:59:29;;;;;;;;;;;21.80;60.90;;;;;;5073516;28;20035;-87
2022/11/10 14:02:13;;;;;;;;;;;21.20;62.30;;;;;;5067628;28;20322;-87
2022/11/10 14:04:39;;;;;;;;;;;20.70;64.50;;;;;;5067677;28;20408;-87
2022/11/10 14:07:11;;;;;;;;;;;20.30;66.60;;;;;;5065560;28;19955;-87
2022/11/10 14:09:40;;;;;;;;;;;20.30;66.90;;;;;;5070415;28;19977;-87
2022/11/10 14:12:14;;;;;;;;;;;20.90;65.80;;;;;;5067459;28;19953;-87
2022/11/10 14:16:24;;;;;;;;;;;21.50;63.80;;;;;;5122090;27;19954;-87
2022/11/10 14:18:53;;;;;;;;;;;22.40;61.80;;;;;;5105242;27;19943;-87
2022/11/10 14:21:21;;;;;;;;;;;22.30;61.70;;;;;;5106890;28;19949;-87
2022/11/10 14:23:52;;;;;;;;;;;22.00;62.40;;;;;;5098397;28;20448;-87
2022/11/10 14:26:41;;;;;;;;;;;21.40;63.50;;;;;;5123445;28;19945;-87
2022/11/10 14:29:27;;;;;;;;;;;20.90;65.10;;;;;;5099865;28;20040;-87
2022/11/10 14:31:53;;;;;;;;;;;20.40;67.50;;;;;;5108662;28;20477;-87
2022/11/10 14:34:19;;;;;;;;;;;19.90;69.90;;;;;;5108262;28;20050;-86
2022/11/10 14:36:54;;;;;;;;;;;19.50;70.90;;;;;;5109058;28;19949;-87
2022/11/10 14:39:25;;;;;;;;;;;19.20;72.30;;;;;;5110518;28;19956;-87
2022/11/10 14:41:51;;;;;;;;;;;18.90;73.60;;;;;;5101058;28;20021;-86
2022/11/10 14:44:24;;;;;;;;;;;18.70;74.90;;;;;;5113664;28;20427;-87